createdAt,value
2023-02-01T00:02:52.234Z,6.30
2023-02-01T00:05:20.222Z,6.30
2023-02-01T00:07:49.987Z,6.30
2023-02-01T00:10:18.268Z,6.30
2023-02-01T00:12:46.403Z,6.30
2023-02-01T00:15:14.191Z,6.30
2023-02-01T00:17:41.958Z,6.30
2023-02-01T00:20:12.888Z,6.30
2023-02-01T00:22:40.689Z,6.40
2023-02-01T00:27:37.009Z,6.40
2023-02-01T00:30:05.415Z,6.40
2023-02-01T00:32:33.788Z,6.40
2023-02-01T00:35:01.661Z,6.40
2023-02-01T00:37:30.920Z,6.40
2023-02-01T00:39:58.759Z,6.40
2023-02-01T00:42:26.529Z,6.50
2023-02-01T00:44:54.300Z,6.50
2023-02-01T00:47:22.094Z,6.50
2023-02-01T00:49:49.829Z,6.40
2023-02-01T00:52:17.634Z,6.30
2023-02-01T00:54:46.809Z,6.30
2023-02-01T00:57:14.806Z,6.30
2023-02-01T00:59:42.581Z,6.30
2023-02-01T05:02:21.835Z,7.10
2023-02-01T05:04:49.728Z,6.90
2023-02-01T05:07:17.541Z,6.90
2023-02-01T05:09:45.379Z,6.80
2023-02-01T05:12:32.258Z,6.80
2023-02-01T05:15:00.143Z,6.80
2023-02-01T05:17:29.464Z,6.80
2023-02-01T05:19:57.414Z,6.80
2023-02-01T05:22:25.344Z,6.90
2023-02-01T05:24:53.162Z,6.90
2023-02-01T05:27:20.948Z,6.90
2023-02-01T05:29:48.788Z,6.90
2023-02-01T05:32:22.574Z,6.90
2023-02-01T05:34:52.164Z,6.90
2023-02-01T05:37:20.048Z,6.90
2023-02-01T05:39:47.909Z,6.90
2023-02-01T05:42:15.875Z,6.90
2023-02-01T05:44:43.696Z,6.90
2023-02-01T05:47:11.856Z,7.00
2023-02-01T05:49:39.718Z,6.90
2023-02-01T05:52:08.869Z,6.80
2023-02-01T05:54:36.914Z,6.80
2023-02-01T05:57:04.876Z,6.90
2023-02-01T05:59:32.832Z,6.90
2023-02-01T06:02:00.620Z,6.90
2023-02-01T06:04:28.729Z,6.80
2023-02-01T06:06:56.642Z,6.80
2023-02-01T06:09:25.733Z,6.70
2023-02-01T06:11:53.697Z,6.60
2023-02-01T06:14:21.652Z,6.60
2023-02-01T06:16:49.539Z,6.50
2023-02-01T06:19:17.603Z,6.50
2023-02-01T06:21:45.462Z,6.50
2023-02-01T06:24:13.341Z,6.50
2023-02-01T06:26:43.015Z,6.50
2023-02-01T06:29:12.514Z,6.40
2023-02-01T06:31:40.735Z,6.50
2023-02-01T06:34:08.849Z,6.40
2023-02-01T06:36:36.854Z,6.40
2023-02-01T06:39:08.199Z,6.40
2023-02-01T06:41:36.557Z,6.50
2023-02-01T06:44:05.840Z,6.50
2023-02-01T06:46:33.639Z,6.40
2023-02-01T06:49:02.065Z,6.40
2023-02-01T06:51:30.574Z,6.40
2023-02-01T06:53:58.632Z,6.40
2023-02-01T06:56:27.165Z,6.40
2023-02-01T06:58:55.197Z,6.30
2023-02-01T07:01:24.329Z,6.30
2023-02-01T07:03:53.233Z,6.30
2023-02-01T07:06:21.369Z,6.30
2023-02-01T07:08:49.166Z,6.30
2023-02-01T07:11:18.367Z,6.30
2023-02-01T07:13:47.034Z,6.30
2023-02-01T07:16:17.740Z,6.30
2023-02-01T07:18:47.386Z,6.40
2023-02-01T07:21:15.268Z,6.40
2023-02-01T07:23:43.044Z,6.40
2023-02-01T07:26:14.116Z,6.40
2023-02-01T07:28:42.878Z,6.40
2023-02-01T07:31:12.601Z,6.50
2023-02-01T07:33:40.400Z,6.50
2023-02-01T07:38:41.032Z,6.50
2023-02-01T07:41:09.125Z,6.60
2023-02-01T07:43:37.535Z,6.60
2023-02-01T07:46:07.250Z,6.60
2023-02-01T07:48:35.818Z,6.60
2023-02-01T07:51:05.796Z,6.60
2023-02-01T07:53:36.141Z,6.60
2023-02-01T07:56:05.085Z,6.60
2023-02-01T07:58:33.035Z,6.60
2023-02-01T08:01:18.340Z,6.60
2023-02-01T08:03:46.111Z,6.60
2023-02-01T08:06:13.895Z,6.70
2023-02-01T08:08:43.479Z,6.70
2023-02-01T08:11:11.314Z,6.70
2023-02-01T08:13:39.183Z,6.70
2023-02-01T08:16:09.326Z,6.80
2023-02-01T08:18:38.391Z,6.80
2023-02-01T08:21:07.607Z,6.80
2023-02-01T08:23:36.209Z,6.80
2023-02-01T08:26:10.321Z,6.80
2023-02-01T08:28:39.001Z,6.80
2023-02-01T08:31:08.812Z,6.80
2023-02-01T08:33:37.990Z,6.70
2023-02-01T08:36:07.071Z,6.80
2023-02-01T08:38:36.574Z,6.80
2023-02-01T08:43:37.362Z,6.80
2023-02-01T08:46:06.149Z,6.80
2023-02-01T08:48:34.927Z,6.90
2023-02-01T08:51:05.391Z,6.80
2023-02-01T08:53:33.574Z,6.80
2023-02-01T08:56:01.755Z,6.80
2023-02-01T08:58:29.882Z,6.80
2023-02-01T09:00:59.089Z,6.80
2023-02-01T09:03:26.904Z,6.90
2023-02-01T09:05:54.751Z,6.90
2023-02-01T09:08:22.703Z,7.00
2023-02-01T09:10:50.678Z,7.10
2023-02-01T09:13:18.500Z,7.10
2023-02-01T09:15:46.884Z,7.00
2023-02-01T09:18:16.126Z,7.00
2023-02-01T09:20:43.963Z,7.00
2023-02-01T09:23:11.763Z,7.00
2023-02-01T09:25:40.178Z,7.10
2023-02-01T09:30:38.591Z,7.10
2023-02-01T09:33:06.680Z,7.10
2023-02-01T09:35:35.948Z,7.10
2023-02-01T09:38:03.883Z,7.10
2023-02-01T09:40:31.716Z,7.10
2023-02-01T09:43:20.814Z,7.10
2023-02-01T09:45:58.061Z,7.10
2023-02-01T09:48:33.305Z,7.10
2023-02-01T09:51:06.659Z,7.20
2023-02-01T09:53:37.193Z,7.20
2023-02-01T09:56:08.436Z,7.30
2023-02-01T09:58:39.730Z,7.30
2023-02-01T10:01:15.221Z,7.30
2023-02-01T10:03:43.188Z,7.30
2023-02-01T10:06:32.565Z,7.30
2023-02-01T10:09:15.901Z,7.30
2023-02-01T10:11:56.836Z,7.30
2023-02-01T10:14:58.675Z,7.30
2023-02-01T10:17:40.737Z,7.40
2023-02-01T10:20:14.452Z,7.50
2023-02-01T10:23:13.364Z,7.50
2023-02-01T10:25:39.607Z,7.60
2023-02-01T10:28:16.845Z,7.60
2023-02-01T10:30:47.385Z,7.50
2023-02-01T10:33:20.431Z,7.50
2023-02-01T10:35:52.959Z,7.60
2023-02-01T10:38:28.098Z,7.70
2023-02-01T10:41:00.425Z,7.70
2023-02-01T10:43:32.809Z,7.80
2023-02-01T10:46:00.736Z,7.90
2023-02-01T10:48:30.307Z,7.90
2023-02-01T10:51:02.550Z,7.90
2023-02-01T10:53:38.222Z,7.90
2023-02-01T10:56:09.593Z,7.90
2023-02-01T10:58:44.649Z,7.80
2023-02-01T11:01:19.580Z,7.80
2023-02-01T11:03:55.404Z,7.80
2023-02-01T11:06:32.174Z,7.80
2023-02-01T11:09:14.062Z,7.80
2023-02-01T11:11:57.019Z,7.90
2023-02-01T11:14:40.536Z,7.90
2023-02-01T11:17:29.842Z,7.90
2023-02-01T11:20:00.661Z,8.00
2023-02-01T11:22:31.540Z,8.00
2023-02-01T11:25:03.645Z,7.90
2023-02-01T11:27:31.922Z,8.00
2023-02-01T11:30:04.944Z,7.90
2023-02-01T11:32:34.169Z,7.80
2023-02-01T11:35:06.054Z,7.80
2023-02-01T11:37:39.697Z,7.80
2023-02-01T11:40:30.751Z,7.90
2023-02-01T11:43:09.045Z,7.90
2023-02-01T11:45:38.539Z,7.80
2023-02-01T11:48:15.061Z,7.70
2023-02-01T11:50:53.768Z,7.90
2023-02-01T11:53:34.240Z,7.90
2023-02-01T11:56:14.177Z,8.00
2023-02-01T11:58:55.865Z,8.00
2023-02-01T12:01:35.988Z,7.90
2023-02-01T12:04:37.738Z,7.80
2023-02-01T12:07:13.499Z,7.90
2023-02-01T12:10:04.234Z,8.10
2023-02-01T12:12:42.957Z,8.00
2023-02-01T12:15:27.505Z,7.20
2023-02-01T12:18:30.877Z,8.10
2023-02-01T12:21:08.272Z,8.00
2023-02-01T12:23:52.471Z,8.00
2023-02-01T12:26:45.145Z,7.90
2023-02-01T12:29:35.450Z,8.00
2023-02-01T12:32:12.520Z,8.00
2023-02-01T12:34:53.796Z,8.00
2023-02-01T12:37:35.291Z,8.00
2023-02-01T12:40:13.465Z,8.10
2023-02-01T12:42:47.254Z,8.10
2023-02-01T12:45:21.727Z,8.00
2023-02-01T12:47:53.754Z,8.00
2023-02-01T12:50:26.927Z,8.00
2023-02-01T12:52:57.082Z,8.00
2023-02-01T12:55:26.967Z,8.00
2023-02-01T12:57:58.064Z,7.90
2023-02-01T13:00:33.770Z,7.80
2023-02-01T13:03:13.710Z,7.80
2023-02-01T13:05:48.972Z,7.70
2023-02-01T13:08:20.023Z,7.80
2023-02-01T13:10:51.841Z,7.80
2023-02-01T13:13:24.652Z,7.80
2023-02-01T13:15:59.260Z,7.80
2023-02-01T13:18:33.348Z,7.90
2023-02-01T13:21:06.243Z,8.00
2023-02-01T13:23:37.314Z,7.80
2023-02-01T13:26:05.373Z,7.80
2023-02-01T13:28:42.121Z,7.80
2023-02-01T13:31:30.676Z,7.80
2023-02-01T13:34:24.908Z,7.80
2023-02-01T13:37:04.792Z,7.80
2023-02-01T13:40:06.501Z,7.90
2023-02-01T13:42:49.453Z,7.90
2023-02-01T13:45:19.715Z,7.90
2023-02-01T13:47:53.795Z,7.90
2023-02-01T13:50:27.830Z,8.00
2023-02-01T13:52:58.746Z,8.00
2023-02-01T13:55:35.839Z,7.90
2023-02-01T13:58:08.078Z,7.90
2023-02-01T14:00:37.550Z,7.90
2023-02-01T14:03:44.305Z,7.90
2023-02-01T14:06:42.019Z,8.00
2023-02-01T14:09:32.555Z,8.00
2023-02-01T14:12:20.468Z,8.10
2023-02-01T14:14:50.558Z,8.10
2023-02-01T14:17:37.251Z,8.10
2023-02-01T14:20:46.342Z,8.20
2023-02-01T14:23:19.099Z,8.30
2023-02-01T14:28:27.241Z,8.40
2023-02-01T14:30:58.560Z,8.50
2023-02-01T14:33:29.273Z,8.50
2023-02-01T14:36:10.124Z,8.60
2023-02-01T14:38:40.712Z,8.60
2023-02-01T14:41:33.628Z,8.60
2023-02-01T14:44:27.732Z,8.60
2023-02-01T14:47:06.755Z,8.70
2023-02-01T14:49:36.885Z,8.70
2023-02-01T14:52:10.252Z,8.60
2023-02-01T14:54:41.615Z,8.60
2023-02-01T14:57:17.976Z,8.60
2023-02-01T14:59:48.081Z,8.60
2023-02-01T15:02:24.396Z,8.60
2023-02-01T15:04:57.177Z,8.50
2023-02-01T15:07:27.656Z,8.50
2023-02-01T15:10:00.045Z,8.50
2023-02-01T15:12:32.664Z,8.50
2023-02-01T15:15:15.412Z,8.50
2023-02-01T15:17:43.264Z,8.60
2023-02-01T15:20:18.842Z,8.50
2023-02-01T15:22:55.349Z,8.50
2023-02-01T15:25:26.831Z,8.50
2023-02-01T15:27:54.906Z,8.50
2023-02-01T15:30:25.237Z,8.40
2023-02-01T15:32:54.248Z,8.40
2023-02-01T15:35:45.376Z,8.40
2023-02-01T15:38:37.230Z,8.30
2023-02-01T15:41:09.910Z,8.30
2023-02-01T15:43:40.652Z,8.30
2023-02-01T15:46:11.816Z,8.40
2023-02-01T15:48:44.811Z,8.40
2023-02-01T15:51:19.755Z,8.40
2023-02-01T15:53:51.389Z,8.40
2023-02-01T15:56:25.199Z,8.40
2023-02-01T15:58:57.277Z,8.40
2023-02-01T16:01:25.314Z,8.30
2023-02-01T16:04:06.138Z,8.40
2023-02-01T16:09:12.440Z,8.30
2023-02-01T16:11:51.107Z,8.30
2023-02-01T16:14:18.923Z,8.30
2023-02-01T16:16:46.678Z,8.20
2023-02-01T16:19:14.465Z,8.20
2023-02-01T16:21:42.249Z,8.20
2023-02-01T16:24:10.235Z,10.40
2023-02-01T16:26:38.412Z,8.10
2023-02-01T16:29:07.892Z,8.10
2023-02-01T16:31:38.523Z,8.10
2023-02-01T16:34:07.446Z,8.10
2023-02-01T16:36:35.838Z,8.10
2023-02-01T16:39:04.622Z,8.10
2023-02-01T16:41:32.417Z,8.00
2023-02-01T16:44:00.151Z,8.00
2023-02-01T16:46:34.271Z,8.00
2023-02-01T16:49:02.872Z,8.00
2023-02-01T16:51:33.678Z,8.00
2023-02-01T16:54:02.100Z,8.00
2023-02-01T16:56:32.679Z,8.00
2023-02-01T16:59:00.934Z,8.00
2023-02-01T17:01:30.684Z,8.00
2023-02-01T17:03:58.563Z,8.00
2023-02-01T17:06:28.309Z,8.00
2023-02-01T17:08:59.460Z,8.00
2023-02-01T17:11:28.224Z,8.00
2023-02-01T17:13:56.913Z,8.00
2023-02-01T17:16:28.422Z,7.90
2023-02-01T17:19:00.873Z,7.90
2023-02-01T17:21:31.454Z,7.90
2023-02-01T17:26:29.096Z,7.90
2023-02-01T17:28:57.902Z,7.80
2023-02-01T17:31:25.852Z,7.90
2023-02-01T17:33:53.601Z,7.90
2023-02-01T17:36:23.794Z,7.90
2023-02-01T17:39:03.953Z,7.80
2023-02-01T17:41:33.054Z,7.80
2023-02-01T17:44:01.053Z,7.80
2023-02-01T17:46:28.942Z,7.80
2023-02-01T17:48:57.054Z,7.70
2023-02-01T17:51:28.153Z,7.70
2023-02-01T17:53:56.296Z,7.70
2023-02-01T17:56:26.154Z,7.60
2023-02-01T17:58:55.687Z,7.70
2023-02-01T18:01:25.124Z,7.70
2023-02-01T18:06:24.016Z,7.60
2023-02-01T18:11:23.732Z,7.50
2023-02-01T18:13:53.949Z,7.50
2023-02-01T18:16:23.314Z,7.40
2023-02-01T18:18:51.784Z,7.50
2023-02-01T18:21:22.194Z,7.50
2023-02-01T18:23:51.060Z,7.50
2023-02-01T18:26:20.391Z,7.40
2023-02-01T18:31:23.671Z,7.40
2023-02-01T18:33:52.495Z,7.30
2023-02-01T18:36:20.340Z,7.20
2023-02-01T18:38:48.370Z,7.20
2023-02-01T18:41:18.644Z,7.10
2023-02-01T18:46:16.634Z,7.00
2023-02-01T18:48:45.070Z,7.00
2023-02-01T18:51:14.505Z,7.00
2023-02-01T18:53:42.310Z,7.00
2023-02-01T18:56:13.089Z,7.00
2023-02-01T18:58:41.162Z,7.10
2023-02-01T19:01:16.476Z,7.10
2023-02-01T19:03:45.779Z,7.10
2023-02-01T19:06:19.347Z,7.10
2023-02-01T19:08:47.776Z,7.10
2023-02-01T19:11:15.605Z,7.00
2023-02-01T19:13:43.387Z,7.00
2023-02-01T19:16:14.587Z,7.10
2023-02-01T19:18:42.455Z,7.10
2023-02-01T19:21:11.904Z,7.00
2023-02-01T19:23:40.159Z,7.00
2023-02-01T19:26:12.274Z,7.00
2023-02-01T19:28:40.122Z,7.00
2023-02-01T19:31:09.701Z,7.00
2023-02-01T19:33:38.947Z,7.00
2023-02-01T19:36:09.867Z,7.10
2023-02-01T19:38:38.262Z,7.10
2023-02-01T19:41:06.763Z,7.10
2023-02-01T19:43:35.407Z,7.20
2023-02-01T19:46:03.699Z,7.20
2023-02-01T19:48:35.717Z,7.20
2023-02-01T19:51:05.263Z,7.20
2023-02-01T19:53:33.051Z,7.30
2023-02-01T19:56:01.756Z,7.30
2023-02-01T19:58:29.684Z,7.30
2023-02-01T20:00:59.532Z,7.30
2023-02-01T20:05:57.552Z,7.40
2023-02-01T20:08:26.949Z,7.50
2023-02-01T20:10:54.771Z,7.50
2023-02-01T20:13:22.631Z,7.50
2023-02-01T20:15:57.186Z,7.60
2023-02-01T20:18:25.096Z,7.60
2023-02-01T20:20:57.081Z,7.60
2023-02-01T20:23:26.886Z,7.70
2023-02-01T20:25:57.175Z,7.70
2023-02-01T20:28:25.112Z,7.80
2023-02-01T20:30:52.935Z,7.80
2023-02-01T20:33:20.900Z,7.90
2023-02-01T20:35:49.321Z,7.90
2023-02-01T20:38:17.182Z,10.60
2023-02-01T20:40:46.462Z,8.00
2023-02-01T20:43:14.237Z,8.00
2023-02-01T20:45:42.316Z,7.90
2023-02-01T20:48:11.224Z,8.00
2023-02-01T20:50:39.798Z,7.90
2023-02-01T20:55:37.776Z,8.00
2023-02-01T20:58:06.871Z,8.00
2023-02-01T21:00:34.766Z,8.10
2023-02-01T21:03:02.586Z,8.10
2023-02-01T21:05:39.970Z,8.10
2023-02-01T21:08:08.999Z,8.10
2023-02-01T21:10:37.719Z,8.20
2023-02-01T21:13:07.242Z,8.10
2023-02-01T21:15:36.118Z,8.10
2023-02-01T21:18:05.219Z,8.10
2023-02-01T21:20:33.609Z,8.10
2023-02-01T21:23:01.553Z,8.10
2023-02-01T21:25:29.607Z,8.20
2023-02-01T21:27:57.450Z,8.20
2023-02-01T21:30:26.626Z,8.20
2023-02-01T21:32:56.372Z,8.20
2023-02-01T21:35:24.545Z,8.20
2023-02-01T21:37:52.455Z,8.20
2023-02-01T21:40:20.573Z,8.10
2023-02-01T21:42:47.434Z,8.10
2023-02-01T21:45:16.482Z,8.00
2023-02-01T21:47:45.828Z,8.00
2023-02-01T21:50:17.619Z,8.00
2023-02-01T21:52:45.994Z,8.00
2023-02-01T21:55:14.569Z,7.90
2023-02-01T21:57:42.492Z,7.90
2023-02-01T22:00:13.398Z,7.90
2023-02-01T22:02:41.383Z,8.00
2023-02-01T22:05:11.212Z,8.00
2023-02-01T22:07:38.956Z,8.10
2023-02-01T22:10:07.404Z,8.10
2023-02-01T22:12:35.216Z,8.10
2023-02-01T22:15:04.535Z,8.10
2023-02-01T22:17:32.407Z,8.00
2023-02-01T22:20:00.289Z,8.10
2023-02-01T22:22:29.454Z,8.10
2023-02-01T22:24:57.177Z,8.20
2023-02-01T22:28:20.492Z,8.10
2023-02-01T22:30:13.890Z,8.10
2023-02-01T22:32:41.718Z,8.10
2023-02-01T22:35:10.178Z,8.10
2023-02-01T22:37:39.256Z,8.00
2023-02-01T22:40:08.093Z,8.00
2023-02-01T22:42:35.843Z,8.00
2023-02-01T22:45:04.620Z,8.00
2023-02-01T22:47:32.334Z,8.00
2023-02-01T22:50:00.074Z,7.90
2023-02-01T22:52:27.899Z,7.90
2023-02-01T22:54:57.081Z,7.80
2023-02-01T22:57:25.772Z,7.80
2023-02-01T22:59:53.575Z,7.80
2023-02-01T23:02:21.396Z,7.80
2023-02-01T23:04:49.171Z,7.90
2023-02-01T23:07:16.979Z,7.90
2023-02-01T23:09:44.684Z,7.90
2023-02-01T23:12:13.759Z,7.90
2023-02-01T23:15:01.454Z,7.90
2023-02-01T23:17:29.455Z,7.90
2023-02-01T23:19:57.216Z,7.90
2023-02-01T23:22:25.001Z,7.90
2023-02-01T23:24:52.795Z,7.90
2023-02-01T23:27:22.181Z,8.00
2023-02-01T23:29:49.926Z,8.00
2023-02-01T23:32:18.442Z,8.00
2023-02-01T23:34:46.179Z,7.90
2023-02-01T23:37:14.230Z,7.90
2023-02-01T23:39:41.981Z,7.90
2023-02-01T23:42:09.851Z,7.80
2023-02-01T23:44:38.904Z,7.80
2023-02-01T23:47:06.746Z,7.80
2023-02-01T23:49:34.455Z,7.90
2023-02-01T23:52:02.326Z,7.90
2023-02-01T23:54:30.105Z,7.90
2023-02-01T23:56:58.164Z,7.90
2023-02-01T23:59:27.069Z,7.90
